Observation data for Seminole on 06/25/2019      Previous  Date       Current Mesonet Observations  Soil Data  Daily Summary Page  Observations in Plain Language
KSM1 250500Z 15012KT 22/13 A2998 RMK A01 T02220131  RH  059%=      5-min Rain = 0
KSM1 250505Z 15012G17KT 22/13 A2998 RMK A01 T02200129  RH  058%=      5-min Rain = 0
KSM1 250510Z 14013KT 22/13 A2998 RMK A01 T02210125  RH  056%=      5-min Rain = 0
KSM1 250515Z 14011KT 22/12 A2998 RMK A01 T02200123  RH  056%=      5-min Rain = 0
KSM1 250520Z 14011KT 22/12 A2998 RMK A01 T02190121  RH  056%=      5-min Rain = 0
KSM1 250525Z 14010KT 22/12 A2998 RMK A01 T02170118  RH  055%=      5-min Rain = 0
KSM1 250530Z 13009KT 22/12 A2997 RMK A01 T02150118  RH  056%=      5-min Rain = 0
KSM1 250535Z 14009KT 21/12 A2997 RMK A01 T02130116  RH  056%=      5-min Rain = 0
KSM1 250540Z 14008KT 21/11 A2997 RMK A01 T02120114  RH  055%=      5-min Rain = 0
KSM1 250545Z 14006KT 21/11 A2997 RMK A01 T02090114  RH  057%=      5-min Rain = 0
KSM1 250550Z 13006KT 21/11 A2997 RMK A01 T02060114  RH  058%=      5-min Rain = 0
KSM1 250555Z 11006KT 20/11 A2997 RMK A01 T02020113  RH  059%=      5-min Rain = 0
KSM1 250600Z 10006KT 20/11 A2997 RMK A01 T01990113  RH  060%=      5-min Rain = 0
KSM1 250605Z 11006KT 20/11 A2997 RMK A01 T01990109  RH  058%=      5-min Rain = 0
KSM1 250610Z 12006KT 20/11 A2997 RMK A01 T02000108  RH  057%=      5-min Rain = 0
KSM1 250615Z 12006KT 20/11 A2997 RMK A01 T01980109  RH  058%=      5-min Rain = 0
KSM1 250620Z 11006KT 19/11 A2997 RMK A01 T01940109  RH  060%=      5-min Rain = 0
KSM1 250625Z 11005KT 19/11 A2997 RMK A01 T01920109  RH  061%=      5-min Rain = 0
KSM1 250630Z 10005KT 19/11 A2997 RMK A01 T01900113  RH  063%=      5-min Rain = 0
KSM1 250635Z 10006KT 19/12 A2997 RMK A01 T01870116  RH  066%=      5-min Rain = 0
KSM1 250640Z 10007KT 18/12 A2997 RMK A01 T01830117  RH  068%=      5-min Rain = 0
KSM1 250645Z 12007KT 19/11 A2997 RMK A01 T01860112  RH  064%=      5-min Rain = 0
KSM1 250650Z 12007KT 19/11 A2997 RMK A01 T01890111  RH  063%=      5-min Rain = 0
KSM1 250655Z 13007KT 19/11 A2997 RMK A01 T01870110  RH  063%=      5-min Rain = 0
KSM1 250700Z 13007KT 19/11 A2997 RMK A01 T01870110  RH  063%=      5-min Rain = 0
KSM1 250705Z 12006KT 18/11 A2997 RMK A01 T01840110  RH  064%=      5-min Rain = 0
KSM1 250710Z 12006KT 18/11 A2997 RMK A01 T01830110  RH  064%=      5-min Rain = 0
KSM1 250715Z 11006KT 18/11 A2997 RMK A01 T01820110  RH  065%=      5-min Rain = 0
KSM1 250720Z 12006KT 18/11 A2997 RMK A01 T01810110  RH  066%=      5-min Rain = 0
KSM1 250725Z 12006KT 18/11 A2997 RMK A01 T01800111  RH  066%=      5-min Rain = 0
KSM1 250730Z 13005KT 18/11 A2997 RMK A01 T01790112  RH  067%=      5-min Rain = 0
KSM1 250735Z 13005KT 18/11 A2998 RMK A01 T01770112  RH  068%=      5-min Rain = 0
KSM1 250740Z 14005KT 18/11 A2997 RMK A01 T01750113  RH  069%=      5-min Rain = 0
KSM1 250745Z 14005KT 17/11 A2998 RMK A01 T01740113  RH  070%=      5-min Rain = 0
KSM1 250750Z 14005KT 17/11 A2998 RMK A01 T01730113  RH  070%=      5-min Rain = 0
KSM1 250755Z 15005KT 17/11 A2998 RMK A01 T01730114  RH  071%=      5-min Rain = 0
KSM1 250800Z 15006KT 17/11 A2998 RMK A01 T01740113  RH  070%=      5-min Rain = 0
KSM1 250805Z 14007KT 18/11 A2998 RMK A01 T01770112  RH  068%=      5-min Rain = 0
KSM1 250810Z 14007KT 18/11 A2998 RMK A01 T01760113  RH  069%=      5-min Rain = 0
KSM1 250815Z 15007KT 18/11 A2998 RMK A01 T01760113  RH  069%=      5-min Rain = 0
KSM1 250820Z 16007KT 18/11 A2998 RMK A01 T01750112  RH  069%=      5-min Rain = 0
KSM1 250825Z 17007KT 18/11 A2998 RMK A01 T01750111  RH  068%=      5-min Rain = 0
KSM1 250830Z 17006KT 18/11 A2999 RMK A01 T01760111  RH  068%=      5-min Rain = 0
KSM1 250835Z 15005KT 18/11 A2999 RMK A01 T01750110  RH  068%=      5-min Rain = 0
KSM1 250840Z 16005KT 17/11 A2999 RMK A01 T01730110  RH  069%=      5-min Rain = 0
KSM1 250845Z 16005KT 17/11 A2999 RMK A01 T01710110  RH  069%=      5-min Rain = 0
KSM1 250850Z 17004KT 17/11 A2998 RMK A01 T01700109  RH  070%=      5-min Rain = 0
KSM1 250855Z 18004KT 17/11 A2998 RMK A01 T01690108  RH  070%=      5-min Rain = 0
KSM1 250900Z 19005KT 17/11 A2998 RMK A01 T01690108  RH  069%=      5-min Rain = 0
KSM1 250905Z 20006KT 17/11 A2998 RMK A01 T01710108  RH  069%=      5-min Rain = 0
KSM1 250910Z 20007KT 17/11 A2998 RMK A01 T01740108  RH  068%=      5-min Rain = 0
KSM1 250915Z 20006KT 18/11 A2998 RMK A01 T01750109  RH  068%=      5-min Rain = 0
KSM1 250920Z 20007KT 18/11 A2998 RMK A01 T01790111  RH  067%=      5-min Rain = 0
KSM1 250925Z 20008KT 18/11 A2997 RMK A01 T01830112  RH  066%=      5-min Rain = 0
KSM1 250930Z 20008KT 19/11 A2997 RMK A01 T01860114  RH  065%=      5-min Rain = 0
KSM1 250935Z 20009KT 19/12 A2997 RMK A01 T01880116  RH  065%=      5-min Rain = 0
KSM1 250940Z 21009KT 19/12 A2997 RMK A01 T01900117  RH  065%=      5-min Rain = 0
KSM1 250945Z 21010KT 19/12 A2998 RMK A01 T01910117  RH  065%=      5-min Rain = 0
KSM1 250950Z 20010KT 19/12 A2998 RMK A01 T01920118  RH  064%=      5-min Rain = 0
KSM1 250955Z 20009KT 19/12 A2998 RMK A01 T01910118  RH  065%=      5-min Rain = 0
KSM1 251000Z 20008KT 19/12 A2998 RMK A01 T01910118  RH  065%=      5-min Rain = 0
KSM1 251005Z 20008KT 19/12 A2998 RMK A01 T01910118  RH  065%=      5-min Rain = 0
KSM1 251010Z 20007KT 19/12 A2998 RMK A01 T01900118  RH  066%=      5-min Rain = 0
KSM1 251015Z 20007KT 19/12 A2998 RMK A01 T01880118  RH  066%=      5-min Rain = 0
KSM1 251020Z 19006KT 19/12 A2998 RMK A01 T01870119  RH  067%=      5-min Rain = 0
KSM1 251025Z 20006KT 19/12 A2998 RMK A01 T01850119  RH  068%=      5-min Rain = 0
KSM1 251030Z 20008KT 19/12 A2998 RMK A01 T01860118  RH  067%=      5-min Rain = 0
KSM1 251035Z 20007KT 19/12 A2998 RMK A01 T01860118  RH  067%=      5-min Rain = 0
KSM1 251040Z 20008KT 19/12 A2998 RMK A01 T01860118  RH  067%=      5-min Rain = 0
KSM1 251045Z 20007KT 19/12 A2998 RMK A01 T01860118  RH  067%=      5-min Rain = 0
KSM1 251050Z 20007KT 19/12 A2998 RMK A01 T01850117  RH  067%=      5-min Rain = 0
KSM1 251055Z 20007KT 19/12 A2998 RMK A01 T01850117  RH  067%=      5-min Rain = 0
KSM1 251100Z 20008KT 19/12 A2999 RMK A01 T01850117  RH  067%=      5-min Rain = 0
KSM1 251105Z 20007KT 18/12 A2999 RMK A01 T01840117  RH  067%=      5-min Rain = 0
KSM1 251110Z 19007KT 18/12 A2999 RMK A01 T01830117  RH  067%=      5-min Rain = 0
KSM1 251115Z 19007KT 18/12 A2999 RMK A01 T01820117  RH  068%=      5-min Rain = 0
KSM1 251120Z 18007KT 18/12 A2999 RMK A01 T01800117  RH  069%=      5-min Rain = 0
KSM1 251125Z 19006KT 18/12 A30 RMK A01 T01780117  RH  070%=      5-min Rain = 0
KSM1 251130Z 18006KT 18/12 A30 RMK A01 T01760117  RH  071%=      5-min Rain = 0
KSM1 251135Z 17006KT 18/12 A30 RMK A01 T01760117  RH  071%=      5-min Rain = 0
KSM1 251140Z 16005KT 18/12 A3001 RMK A01 T01750117  RH  071%=      5-min Rain = 0
KSM1 251145Z 16005KT 17/12 A3001 RMK A01 T01720118  RH  073%=      5-min Rain = 0
KSM1 251150Z 15005KT 17/12 A3001 RMK A01 T01680117  RH  075%=      5-min Rain = 0
KSM1 251155Z 15004KT 16/12 A3001 RMK A01 T01640117  RH  076%=      5-min Rain = 0
KSM1 251200Z 15003KT 16/12 A3001 RMK A01 T01630117  RH  077%=      5-min Rain = 0
KSM1 251205Z 15002KT 16/12 A3001 RMK A01 T01630117  RH  077%=      5-min Rain = 0
KSM1 251210Z 15003KT 16/12 A3002 RMK A01 T01640117  RH  077%=      5-min Rain = 0
KSM1 251215Z 15002KT 16/12 A3002 RMK A01 T01640118  RH  077%=      5-min Rain = 0
KSM1 251220Z 15002KT 17/12 A3002 RMK A01 T01660119  RH  077%=      5-min Rain = 0
KSM1 251225Z 15001KT 17/12 A3002 RMK A01 T01700121  RH  076%=      5-min Rain = 0
KSM1 251230Z 15001KT 17/12 A3002 RMK A01 T01740121  RH  074%=      5-min Rain = 0
KSM1 251235Z 15002KT 18/12 A3002 RMK A01 T01760121  RH  073%=      5-min Rain = 0
KSM1 251240Z 15002KT 18/12 A3002 RMK A01 T01770122  RH  073%=      5-min Rain = 0
KSM1 251245Z 15002KT 18/12 A3002 RMK A01 T01790122  RH  072%=      5-min Rain = 0
KSM1 251250Z 16002KT 18/12 A3002 RMK A01 T01830122  RH  070%=      5-min Rain = 0
KSM1 251255Z 18003KT 18/12 A3002 RMK A01 T01840122  RH  070%=      5-min Rain = 0
KSM1 251300Z 17003KT 19/12 A3002 RMK A01 T01870124  RH  069%=      5-min Rain = 0
KSM1 251305Z 18004KT 19/13 A3002 RMK A01 T01890126  RH  069%=      5-min Rain = 0
KSM1 251310Z 18005KT 19/13 A3002 RMK A01 T01940128  RH  068%=      5-min Rain = 0
KSM1 251315Z 19007KT 20/13 A3002 RMK A01 T01980131  RH  068%=      5-min Rain = 0
KSM1 251320Z 19007KT 20/14 A3002 RMK A01 T02020136  RH  068%=      5-min Rain = 0
KSM1 251325Z 20009KT 20/14 A3003 RMK A01 T02030137  RH  069%=      5-min Rain = 0
KSM1 251330Z 19009KT 20/14 A3003 RMK A01 T02040139  RH  069%=      5-min Rain = 0
KSM1 251335Z 19008KT 21/14 A3003 RMK A01 T02060140  RH  069%=      5-min Rain = 0
KSM1 251340Z 19009KT 21/14 A3003 RMK A01 T02100143  RH  069%=      5-min Rain = 0
KSM1 251345Z 19009KT 21/15 A3003 RMK A01 T02120145  RH  069%=      5-min Rain = 0
KSM1 251350Z 18011G16KT 22/15 A3003 RMK A01 T02150149  RH  069%=      5-min Rain = 0
KSM1 251355Z 19012KT 22/15 A3003 RMK A01 T02180154  RH  070%=      5-min Rain = 0
KSM1 251400Z 19014G20KT 22/16 A3003 RMK A01 T02220156  RH  069%=      5-min Rain = 0
KSM1 251405Z 18013G18KT 22/16 A3003 RMK A01 T02240157  RH  069%=      5-min Rain = 0
KSM1 251410Z 19013G18KT 23/16 A3003 RMK A01 T02270156  RH  067%=      5-min Rain = 0
KSM1 251415Z 19015G20KT 23/16 A3003 RMK A01 T02290156  RH  067%=      5-min Rain = 0
KSM1 251420Z 20015KT 23/16 A3003 RMK A01 T02300156  RH  066%=      5-min Rain = 0
KSM1 251425Z 19015KT 23/16 A3003 RMK A01 T02320156  RH  065%=      5-min Rain = 0
KSM1 251430Z 20013KT 23/16 A3003 RMK A01 T02340157  RH  065%=      5-min Rain = 0
KSM1 251435Z 19012G17KT 24/16 A3003 RMK A01 T02370157  RH  064%=      5-min Rain = 0
KSM1 251440Z 20012G18KT 24/16 A3003 RMK A01 T02410156  RH  062%=      5-min Rain = 0
KSM1 251445Z 19013G18KT 24/16 A3003 RMK A01 T02420156  RH  061%=      5-min Rain = 0
KSM1 251450Z 19012G17KT 24/16 A3003 RMK A01 T02440157  RH  061%=      5-min Rain = 0
KSM1 251455Z 20011G16KT 25/16 A3003 RMK A01 T02480157  RH  060%=      5-min Rain = 0
KSM1 251500Z 20012G18KT 25/16 A3003 RMK A01 T02490156  RH  059%=      5-min Rain = 0
KSM1 251505Z 20011KT 25/16 A3003 RMK A01 T02520156  RH  058%=      5-min Rain = 0
KSM1 251510Z 20009G15KT 26/16 A3003 RMK A01 T02570156  RH  056%=      5-min Rain = 0
KSM1 251515Z 20012KT 26/15 A3003 RMK A01 T02580154  RH  055%=      5-min Rain = 0
KSM1 251520Z 19011G16KT 26/15 A3003 RMK A01 T02600154  RH  055%=      5-min Rain = 0
KSM1 251525Z 20011G17KT 26/15 A3003 RMK A01 T02610152  RH  053%=      5-min Rain = 0
KSM1 251530Z 20012KT 26/15 A3003 RMK A01 T02630150  RH  052%=      5-min Rain = 0
KSM1 251535Z 20009KT 27/15 A3003 RMK A01 T02650150  RH  051%=      5-min Rain = 0
KSM1 251540Z 20010KT 27/15 A3003 RMK A01 T02690150  RH  050%=      5-min Rain = 0
KSM1 251545Z 20010G15KT 27/15 A3002 RMK A01 T02680151  RH  051%=      5-min Rain = 0
KSM1 251550Z 21009G15KT 27/15 A3002 RMK A01 T02730151  RH  049%=      5-min Rain = 0
KSM1 251555Z 21010KT 27/15 A3002 RMK A01 T02730149  RH  049%=      5-min Rain = 0
KSM1 251600Z 21009KT 27/15 A3002 RMK A01 T02730149  RH  049%=      5-min Rain = 0
KSM1 251605Z 21009KT 27/15 A3002 RMK A01 T02740151  RH  049%=      5-min Rain = 0
KSM1 251610Z 21010G20KT 28/15 A3002 RMK A01 T02760148  RH  048%=      5-min Rain = 0
KSM1 251615Z 23007KT 28/15 A3002 RMK A01 T02760150  RH  048%=      5-min Rain = 0
KSM1 251620Z 20009KT 28/15 A3002 RMK A01 T02800150  RH  047%=      5-min Rain = 0
KSM1 251625Z 21008KT 28/15 A3002 RMK A01 T02840150  RH  046%=      5-min Rain = 0
KSM1 251630Z 24008KT 28/15 A3002 RMK A01 T02840146  RH  045%=      5-min Rain = 0
KSM1 251635Z 20008KT 29/15 A3002 RMK A01 T02890146  RH  043%=      5-min Rain = 0
KSM1 251640Z 21007KT 29/15 A3002 RMK A01 T02920146  RH  043%=      5-min Rain = 0
KSM1 251645Z 20006KT 30/14 A3002 RMK A01 T02970141  RH  040%=      5-min Rain = 0
KSM1 251650Z 21006G11KT 30/14 A3002 RMK A01 T02970140  RH  040%=      5-min Rain = 0
KSM1 251655Z 19009KT 30/14 A3002 RMK A01 T03020139  RH  039%=      5-min Rain = 0
KSM1 251700Z 20006KT 30/14 A3002 RMK A01 T03010139  RH  039%=      5-min Rain = 0
KSM1 251705Z 21005KT 31/14 A3002 RMK A01 T03050136  RH  037%=      5-min Rain = 0
KSM1 251710Z 21005KT 31/13 A3002 RMK A01 T03070131  RH  036%=      5-min Rain = 0
KSM1 251715Z 20006G12KT 31/13 A3001 RMK A01 T03080128  RH  034%=      5-min Rain = 0
KSM1 251720Z 22008KT 31/13 A3001 RMK A01 T03110126  RH  034%=      5-min Rain = 0
KSM1 251725Z 22006KT 31/13 A3001 RMK A01 T03140130  RH  034%=      5-min Rain = 0
KSM1 251730Z 19008KT 32/13 A3001 RMK A01 T03160125  RH  032%=      5-min Rain = 0
KSM1 251735Z 20007KT 32/12 A3001 RMK A01 T03200122  RH  031%=      5-min Rain = 0
KSM1 251740Z 19007KT 32/12 A3001 RMK A01 T03220119  RH  030%=      5-min Rain = 0
KSM1 251745Z 18007KT 32/12 A3001 RMK A01 T03240119  RH  030%=      5-min Rain = 0
KSM1 251750Z 17005KT 33/12 A3001 RMK A01 T03250123  RH  030%=      5-min Rain = 0
KSM1 251755Z 17006G12KT 33/12 A30 RMK A01 T03290124  RH  030%=      5-min Rain = 0
KSM1 251800Z 17007G12KT 33/12 A3001 RMK A01 T03320116  RH  028%=      5-min Rain = 0
KSM1 251805Z 18006KT 33/11 A3001 RMK A01 T03300114  RH  028%=      5-min Rain = 0
KSM1 251810Z 17005G12KT 33/11 A3001 RMK A01 T03320111  RH  027%=      5-min Rain = 0
KSM1 251815Z 18006G12KT 34/11 A30 RMK A01 T03360105  RH  025%=      5-min Rain = 0
KSM1 251820Z 20006KT 34/10 A30 RMK A01 T03360100  RH  024%=      5-min Rain = 0
KSM1 251825Z 19006G11KT 34/09 A30 RMK A01 T03380092  RH  023%=      5-min Rain = 0
KSM1 251830Z 19005KT 34/08 A30 RMK A01 T03420082  RH  021%=      5-min Rain = 0
KSM1 251835Z 13004G9KT 34/10 A30 RMK A01 T03440102  RH  024%=      5-min Rain = 0
KSM1 251840Z 19007KT 34/09 A30 RMK A01 T03440090  RH  022%=      5-min Rain = 0
KSM1 251845Z 18006G13KT 35/08 A30 RMK A01 T03450078  RH  020%=      5-min Rain = 0
KSM1 251850Z 16009KT 35/07 A30 RMK A01 T03480070  RH  019%=      5-min Rain = 0
KSM1 251855Z 17006G12KT 35/07 A2999 RMK A01 T03490071  RH  019%=      5-min Rain = 0
KSM1 251900Z 15007G14KT 35/08 A2999 RMK A01 T03480076  RH  019%=      5-min Rain = 0
KSM1 251905Z 15009KT 35/07 A2999 RMK A01 T03510073  RH  019%=      5-min Rain = 0
KSM1 251910Z 16008G14KT 35/06 A2999 RMK A01 T03510055  RH  016%=      5-min Rain = 0
KSM1 251915Z 14007G14KT 35/06 A2998 RMK A01 T03500058  RH  017%=      5-min Rain = 0
KSM1 251920Z 14012G17KT 35/05 A2998 RMK A01 T03540046  RH  015%=      5-min Rain = 0
KSM1 251925Z 15009G14KT 35/05 A2998 RMK A01 T03540048  RH  015%=      5-min Rain = 0
KSM1 251930Z 16008KT 36/06 A2998 RMK A01 T03550055  RH  016%=      5-min Rain = 0
KSM1 251935Z 19010KT 36/06 A2998 RMK A01 T03560064  RH  017%=      5-min Rain = 0
KSM1 251940Z 21007KT 36/06 A2998 RMK A01 T03570056  RH  016%=      5-min Rain = 0
KSM1 251945Z 16006G12KT 36/05 A2998 RMK A01 T03600050  RH  015%=      5-min Rain = 0
KSM1 251950Z 16012KT 36/04 A2997 RMK A01 T03600036  RH  014%=      5-min Rain = 0
KSM1 251955Z 17008G13KT 36/03 A2997 RMK A01 T03610027  RH  013%=      5-min Rain = 0
KSM1 252000Z 13006KT 36/03 A2997 RMK A01 T03620027  RH  013%=      5-min Rain = 0
KSM1 252005Z 15007G13KT 36/03 A2997 RMK A01 T03590029  RH  013%=      5-min Rain = 0
KSM1 252010Z 15009G14KT 36/03 A2996 RMK A01 T03600026  RH  013%=      5-min Rain = 0
KSM1 252015Z 14007G12KT 36/03 A2996 RMK A01 T03620028  RH  013%=      5-min Rain = 0
KSM1 252020Z 16008G13KT 36/04 A2996 RMK A01 T03640035  RH  013%=      5-min Rain = 0
KSM1 252025Z 13010KT 37/03 A2996 RMK A01 T03670033  RH  013%=      5-min Rain = 0
KSM1 252030Z 19009KT 37/02 A2996 RMK A01 T03670018  RH  011%=      5-min Rain = 0
KSM1 252035Z 17006KT 37/02 A2996 RMK A01 T03690023  RH  012%=      5-min Rain = 0
KSM1 252040Z 13008KT 37/04 A2996 RMK A01 T03650037  RH  013%=      5-min Rain = 0
KSM1 252045Z 12009G15KT 37/04 A2995 RMK A01 T03650037  RH  013%=      5-min Rain = 0
KSM1 252050Z 11010G15KT 36/03 A2995 RMK A01 T03630034  RH  013%=      5-min Rain = 0
KSM1 252055Z 14008KT 36/03 A2995 RMK A01 T03560032  RH  013%=      5-min Rain = 0
KSM1 252100Z 15008KT 35/03 A2995 RMK A01 T03510033  RH  014%=      5-min Rain = 0
KSM1 252105Z 13015G21KT 35/06 A2994 RMK A01 T03530057  RH  016%=      5-min Rain = 0
KSM1 252110Z 12009G15KT 35/05 A2994 RMK A01 T03480051  RH  016%=      5-min Rain = 0
KSM1 252115Z 13012G17KT 36/06 A2994 RMK A01 T03570057  RH  016%=      5-min Rain = 0
KSM1 252120Z 13014G20KT 36/07 A2994 RMK A01 T03620066  RH  017%=      5-min Rain = 0
KSM1 252125Z 15016G21KT 36/07 A2994 RMK A01 T03600070  RH  017%=      5-min Rain = 0
KSM1 252130Z 13016G22KT 36/07 A2994 RMK A01 T03580069  RH  017%=      5-min Rain = 0
KSM1 252135Z 14016KT 36/07 A2994 RMK A01 T03590068  RH  017%=      5-min Rain = 0
KSM1 252140Z 13014G21KT 36/07 A2994 RMK A01 T03580070  RH  017%=      5-min Rain = 0
KSM1 252145Z 13018G24KT 36/07 A2994 RMK A01 T03590072  RH  018%=      5-min Rain = 0
KSM1 252150Z 13015G21KT 36/07 A2994 RMK A01 T03560072  RH  018%=      5-min Rain = 0
KSM1 252155Z 12015KT 36/07 A2994 RMK A01 T03590073  RH  018%=      5-min Rain = 0
KSM1 252200Z 12015G21KT 36/07 A2993 RMK A01 T03590071  RH  017%=      5-min Rain = 0
KSM1 252205Z 13014G25KT 36/07 A2993 RMK A01 T03600066  RH  017%=      5-min Rain = 0
KSM1 252210Z 13016KT 36/07 A2993 RMK A01 T03570067  RH  017%=      5-min Rain = 0
KSM1 252215Z 13015KT 36/07 A2993 RMK A01 T03570065  RH  017%=      5-min Rain = 0
KSM1 252220Z 12015G21KT 36/06 A2993 RMK A01 T03550061  RH  017%=      5-min Rain = 0
KSM1 252225Z 13017G23KT 36/06 A2993 RMK A01 T03570063  RH  017%=      5-min Rain = 0
KSM1 252230Z 14016KT 35/06 A2993 RMK A01 T03530061  RH  017%=      5-min Rain = 0
KSM1 252235Z 13015G21KT 35/06 A2993 RMK A01 T03520064  RH  017%=      5-min Rain = 0
KSM1 252240Z 12016KT 35/06 A2993 RMK A01 T03540062  RH  017%=      5-min Rain = 0
KSM1 252245Z 13016G21KT 36/06 A2992 RMK A01 T03550057  RH  016%=      5-min Rain = 0
KSM1 252250Z 12017G22KT 35/05 A2992 RMK A01 T03540054  RH  016%=      5-min Rain = 0
KSM1 252255Z 14016G21KT 35/06 A2992 RMK A01 T03540057  RH  016%=      5-min Rain = 0
KSM1 252300Z 13017G24KT 35/06 A2992 RMK A01 T03530058  RH  016%=      5-min Rain = 0
KSM1 252305Z 13015G21KT 35/06 A2992 RMK A01 T03520057  RH  017%=      5-min Rain = 0
KSM1 252310Z 13016KT 35/06 A2992 RMK A01 T03530060  RH  017%=      5-min Rain = 0
KSM1 252315Z 14017G23KT 35/06 A2992 RMK A01 T03510060  RH  017%=      5-min Rain = 0
KSM1 252320Z 13016G22KT 35/06 A2992 RMK A01 T03470060  RH  017%=      5-min Rain = 0
KSM1 252325Z 13014G19KT 35/06 A2992 RMK A01 T03470064  RH  018%=      5-min Rain = 0
KSM1 252330Z 13016G22KT 35/07 A2992 RMK A01 T03500065  RH  018%=      5-min Rain = 0
KSM1 252335Z 12016KT 35/07 A2992 RMK A01 T03480068  RH  018%=      5-min Rain = 0
KSM1 252340Z 12015KT 35/07 A2992 RMK A01 T03480070  RH  018%=      5-min Rain = 0
KSM1 252345Z 13014G20KT 35/07 A2991 RMK A01 T03460068  RH  018%=      5-min Rain = 0
KSM1 252350Z 14016G21KT 35/06 A2991 RMK A01 T03460064  RH  018%=      5-min Rain = 0
KSM1 252355Z 12015G21KT 35/07 A2991 RMK A01 T03450068  RH  018%=      5-min Rain = 0
KSM1 260000Z 12016KT 34/07 A2991 RMK A01 T03440065  RH  018%=      5-min Rain = 0
KSM1 260005Z 13017G22KT 34/07 A2991 RMK A01 T03440065  RH  018%=      5-min Rain = 0
KSM1 260010Z 15014G19KT 34/07 A2991 RMK A01 T03420067  RH  019%=      5-min Rain = 0
KSM1 260015Z 13016G21KT 34/07 A2991 RMK A01 T03410074  RH  020%=      5-min Rain = 0
KSM1 260020Z 14016G22KT 34/08 A2991 RMK A01 T03400081  RH  021%=      5-min Rain = 0
KSM1 260025Z 14018KT 34/08 A2991 RMK A01 T03360080  RH  021%=      5-min Rain = 0
KSM1 260030Z 15016G22KT 33/08 A2992 RMK A01 T03340081  RH  022%=      5-min Rain = 0
KSM1 260035Z 15015G22KT 33/09 A2992 RMK A01 T03330085  RH  022%=      5-min Rain = 0
KSM1 260040Z 14015G20KT 33/09 A2992 RMK A01 T03320089  RH  023%=      5-min Rain = 0
KSM1 260045Z 14016KT 33/09 A2992 RMK A01 T03300090  RH  024%=      5-min Rain = 0
KSM1 260050Z 14017G22KT 33/09 A2992 RMK A01 T03270089  RH  024%=      5-min Rain = 0
KSM1 260055Z 14016KT 32/09 A2992 RMK A01 T03240092  RH  025%=      5-min Rain = 0
KSM1 260100Z 14016G21KT 32/09 A2992 RMK A01 T03230091  RH  025%=      5-min Rain = 0
KSM1 260105Z 14017G22KT 32/09 A2992 RMK A01 T03220091  RH  025%=      5-min Rain = 0
KSM1 260110Z 14016G21KT 32/09 A2992 RMK A01 T03210091  RH  025%=      5-min Rain = 0
KSM1 260115Z 14019G25KT 32/09 A2992 RMK A01 T03190091  RH  025%=      5-min Rain = 0
KSM1 260120Z 14017KT 32/09 A2992 RMK A01 T03180093  RH  026%=      5-min Rain = 0
KSM1 260125Z 14019G24KT 32/09 A2992 RMK A01 T03160093  RH  026%=      5-min Rain = 0
KSM1 260130Z 14017G22KT 31/10 A2992 RMK A01 T03130095  RH  027%=      5-min Rain = 0
KSM1 260135Z 14016G22KT 31/10 A2993 RMK A01 T03100095  RH  027%=      5-min Rain = 0
KSM1 260140Z 15016G21KT 31/09 A2993 RMK A01 T03090094  RH  027%=      5-min Rain = 0
KSM1 260145Z 15017G22KT 31/10 A2993 RMK A01 T03090095  RH  027%=      5-min Rain = 0
KSM1 260150Z 15018G23KT 31/10 A2994 RMK A01 T03070097  RH  028%=      5-min Rain = 0
KSM1 260155Z 15016G22KT 31/10 A2994 RMK A01 T03050102  RH  029%=      5-min Rain = 0
KSM1 260200Z 15017G23KT 30/11 A2994 RMK A01 T03020109  RH  031%=      5-min Rain = 0
KSM1 260205Z 15015G20KT 30/11 A2995 RMK A01 T03000111  RH  032%=      5-min Rain = 0
KSM1 260210Z 16017G24KT 30/11 A2996 RMK A01 T02980113  RH  033%=      5-min Rain = 0
KSM1 260215Z 15020G25KT 30/12 A2996 RMK A01 T02970117  RH  034%=      5-min Rain = 0
KSM1 260220Z 15017G23KT 30/12 A2997 RMK A01 T02950119  RH  035%=      5-min Rain = 0
KSM1 260225Z 15017G23KT 29/12 A2997 RMK A01 T02940120  RH  036%=      5-min Rain = 0
KSM1 260230Z 16018G25KT 29/12 A2998 RMK A01 T02930123  RH  036%=      5-min Rain = 0
KSM1 260235Z 16017G23KT 29/12 A2999 RMK A01 T02920124  RH  037%=      5-min Rain = 0
KSM1 260240Z 17013G20KT 29/13 A3001 RMK A01 T02910125  RH  037%=      5-min Rain = 0
KSM1 260245Z 17012KT 29/13 A3002 RMK A01 T02910126  RH  038%=      5-min Rain = 0
KSM1 260250Z 17012G17KT 29/13 A3002 RMK A01 T02890134  RH  040%=      5-min Rain = 0.01
KSM1 260255Z 14013G18KT 27/15 A3001 RMK A01 T02710154  RH  051%=      5-min Rain = 0.02
KSM1 260300Z 14014KT 26/16 A30 RMK A01 T02640159  RH  055%=      5-min Rain = 0
KSM1 260305Z 14013KT 26/17 A3001 RMK A01 T02570165  RH  060%=      5-min Rain = 0
KSM1 260310Z 14013KT 25/16 A3001 RMK A01 T02540162  RH  059%=      5-min Rain = 0
KSM1 260315Z 14013KT 26/16 A3002 RMK A01 T02550159  RH  058%=      5-min Rain = 0
KSM1 260320Z 14014KT 26/15 A3002 RMK A01 T02580150  RH  054%=      5-min Rain = 0
KSM1 260325Z 14014G19KT 26/15 A3003 RMK A01 T02600148  RH  052%=      5-min Rain = 0
KSM1 260330Z 14014KT 26/15 A3003 RMK A01 T02620145  RH  051%=      5-min Rain = 0
KSM1 260335Z 14014G19KT 26/14 A3004 RMK A01 T02620143  RH  050%=      5-min Rain = 0
KSM1 260340Z 14013KT 26/14 A3004 RMK A01 T02620143  RH  050%=      5-min Rain = 0
KSM1 260345Z 14013KT 26/14 A3004 RMK A01 T02620141  RH  049%=      5-min Rain = 0
KSM1 260350Z 14013KT 26/14 A3004 RMK A01 T02600142  RH  050%=      5-min Rain = 0
KSM1 260355Z 14012KT 26/14 A3005 RMK A01 T02600142  RH  050%=      5-min Rain = 0
KSM1 260400Z 14011KT 26/15 A3005 RMK A01 T02570146  RH  052%=      5-min Rain = 0
KSM1 260405Z 13012KT 25/15 A3005 RMK A01 T02530146  RH  054%=      5-min Rain = 0
KSM1 260410Z 13011KT 25/15 A3006 RMK A01 T02520146  RH  054%=      5-min Rain = 0
KSM1 260415Z 12011KT 25/14 A3006 RMK A01 T02510144  RH  054%=      5-min Rain = 0
KSM1 260420Z 12012KT 25/14 A3005 RMK A01 T02490144  RH  054%=      5-min Rain = 0
KSM1 260425Z 13014KT 25/14 A3005 RMK A01 T02500140  RH  053%=      5-min Rain = 0
KSM1 260430Z 13014G21KT 25/14 A3005 RMK A01 T02500140  RH  053%=      5-min Rain = 0
KSM1 260435Z 13016G21KT 25/14 A3005 RMK A01 T02510137  RH  051%=      5-min Rain = 0
KSM1 260440Z 14014KT 25/14 A3005 RMK A01 T02500137  RH  051%=      5-min Rain = 0
KSM1 260445Z 13014KT 25/13 A3005 RMK A01 T02500134  RH  051%=      5-min Rain = 0
KSM1 260450Z 13015KT 25/13 A3005 RMK A01 T02510133  RH  050%=      5-min Rain = 0
KSM1 260455Z 13015KT 25/13 A3005 RMK A01 T02490134  RH  051%=      5-min Rain = 0

Page generated in 0.0097 seconds.